sensor_id;sensor_type;location;lat;lon;timestamp;P1;durP1;ratioP1;P2;durP2;ratioP2
26106;SDS011;13866;50.748;12.630;2023-02-28T00:00:28;11.43;;;9.93;;
26106;SDS011;13866;50.748;12.630;2023-02-28T00:02:54;11.70;;;10.90;;
26106;SDS011;13866;50.748;12.630;2023-02-28T00:05:20;11.50;;;10.60;;
26106;SDS011;13866;50.748;12.630;2023-02-28T00:07:48;11.02;;;10.25;;
26106;SDS011;13866;50.748;12.630;2023-02-28T00:10:15;10.32;;;9.65;;
26106;SDS011;13866;50.748;12.630;2023-02-28T00:12:45;10.32;;;9.73;;
26106;SDS011;13866;50.748;12.630;2023-02-28T00:15:24;10.70;;;10.00;;
26106;SDS011;13866;50.748;12.630;2023-02-28T00:17:50;11.40;;;10.00;;
26106;SDS011;13866;50.748;12.630;2023-02-28T00:20:16;11.17;;;10.47;;
26106;SDS011;13866;50.748;12.630;2023-02-28T00:22:43;9.45;;;8.85;;
26106;SDS011;13866;50.748;12.630;2023-02-28T00:25:11;9.60;;;8.73;;
26106;SDS011;13866;50.748;12.630;2023-02-28T00:27:38;10.75;;;10.05;;
26106;SDS011;13866;50.748;12.630;2023-02-28T00:30:05;9.90;;;9.43;;
26106;SDS011;13866;50.748;12.630;2023-02-28T00:32:34;11.73;;;9.18;;
26106;SDS011;13866;50.748;12.630;2023-02-28T00:35:00;9.17;;;8.63;;
26106;SDS011;13866;50.748;12.630;2023-02-28T00:37:26;9.53;;;9.00;;
26106;SDS011;13866;50.748;12.630;2023-02-28T00:39:51;9.20;;;8.70;;
26106;SDS011;13866;50.748;12.630;2023-02-28T00:42:17;10.10;;;9.37;;
26106;SDS011;13866;50.748;12.630;2023-02-28T00:44:42;7.77;;;7.27;;
26106;SDS011;13866;50.748;12.630;2023-02-28T00:47:07;8.40;;;8.00;;
26106;SDS011;13866;50.748;12.630;2023-02-28T00:49:33;8.40;;;7.97;;
26106;SDS011;13866;50.748;12.630;2023-02-28T00:51:58;8.50;;;7.90;;
26106;SDS011;13866;50.748;12.630;2023-02-28T00:54:24;8.70;;;8.27;;
26106;SDS011;13866;50.748;12.630;2023-02-28T00:56:50;8.70;;;7.77;;
26106;SDS011;13866;50.748;12.630;2023-02-28T00:59:15;10.17;;;7.63;;
26106;SDS011;13866;50.748;12.630;2023-02-28T01:01:42;9.18;;;8.52;;
26106;SDS011;13866;50.748;12.630;2023-02-28T01:04:08;8.45;;;8.02;;
26106;SDS011;13866;50.748;12.630;2023-02-28T01:06:34;8.90;;;8.40;;
26106;SDS011;13866;50.748;12.630;2023-02-28T01:09:00;8.00;;;7.70;;
26106;SDS011;13866;50.748;12.630;2023-02-28T01:11:26;8.80;;;8.30;;
26106;SDS011;13866;50.748;12.630;2023-02-28T01:13:52;9.30;;;8.70;;
26106;SDS011;13866;50.748;12.630;2023-02-28T01:16:17;8.27;;;7.67;;
26106;SDS011;13866;50.748;12.630;2023-02-28T01:18:43;7.87;;;7.47;;
26106;SDS011;13866;50.748;12.630;2023-02-28T01:21:13;8.20;;;7.87;;
26106;SDS011;13866;50.748;12.630;2023-02-28T01:23:40;8.02;;;7.65;;
26106;SDS011;13866;50.748;12.630;2023-02-28T01:26:10;8.55;;;8.00;;
26106;SDS011;13866;50.748;12.630;2023-02-28T01:28:40;7.85;;;7.20;;
26106;SDS011;13866;50.748;12.630;2023-02-28T01:31:06;9.50;;;8.55;;
26106;SDS011;13866;50.748;12.630;2023-02-28T01:33:33;7.07;;;6.88;;
26106;SDS011;13866;50.748;12.630;2023-02-28T01:36:00;7.17;;;6.93;;
26106;SDS011;13866;50.748;12.630;2023-02-28T01:38:46;6.95;;;6.55;;
26106;SDS011;13866;50.748;12.630;2023-02-28T01:41:14;8.13;;;7.70;;
26106;SDS011;13866;50.748;12.630;2023-02-28T01:46:09;7.77;;;7.23;;
26106;SDS011;13866;50.748;12.630;2023-02-28T01:48:40;7.35;;;7.05;;
26106;SDS011;13866;50.748;12.630;2023-02-28T01:51:13;7.35;;;6.95;;
26106;SDS011;13866;50.748;12.630;2023-02-28T01:53:53;6.07;;;5.97;;
26106;SDS011;13866;50.748;12.630;2023-02-28T01:56:24;6.90;;;6.60;;
26106;SDS011;13866;50.748;12.630;2023-02-28T01:58:55;7.57;;;7.28;;
26106;SDS011;13866;50.748;12.630;2023-02-28T02:01:21;6.85;;;6.55;;
26106;SDS011;13866;50.748;12.630;2023-02-28T02:03:48;8.48;;;7.40;;
26106;SDS011;13866;50.748;12.630;2023-02-28T02:06:21;7.25;;;6.72;;
26106;SDS011;13866;50.748;12.630;2023-02-28T02:08:48;6.90;;;6.60;;
26106;SDS011;13866;50.748;12.630;2023-02-28T02:11:13;7.73;;;7.33;;
26106;SDS011;13866;50.748;12.630;2023-02-28T02:13:53;6.80;;;6.50;;
26106;SDS011;13866;50.748;12.630;2023-02-28T02:16:48;7.60;;;7.10;;
26106;SDS011;13866;50.748;12.630;2023-02-28T02:22:48;6.40;;;6.07;;
26106;SDS011;13866;50.748;12.630;2023-02-28T02:25:32;7.47;;;7.22;;
26106;SDS011;13866;50.748;12.630;2023-02-28T02:33:24;6.75;;;6.55;;
26106;SDS011;13866;50.748;12.630;2023-02-28T02:36:05;7.70;;;7.20;;
26106;SDS011;13866;50.748;12.630;2023-02-28T02:38:47;7.90;;;7.40;;
26106;SDS011;13866;50.748;12.630;2023-02-28T02:41:35;6.60;;;6.30;;
26106;SDS011;13866;50.748;12.630;2023-02-28T02:46:48;8.00;;;7.38;;
26106;SDS011;13866;50.748;12.630;2023-02-28T02:49:28;7.00;;;6.65;;
26106;SDS011;13866;50.748;12.630;2023-02-28T02:51:57;6.43;;;6.20;;
26106;SDS011;13866;50.748;12.630;2023-02-28T02:54:28;7.68;;;7.25;;
26106;SDS011;13866;50.748;12.630;2023-02-28T02:56:58;7.43;;;7.15;;
26106;SDS011;13866;50.748;12.630;2023-02-28T02:59:28;6.80;;;6.53;;
26106;SDS011;13866;50.748;12.630;2023-02-28T03:01:56;6.68;;;6.28;;
26106;SDS011;13866;50.748;12.630;2023-02-28T03:04:25;7.25;;;6.97;;
26106;SDS011;13866;50.748;12.630;2023-02-28T03:06:55;7.03;;;6.43;;
26106;SDS011;13866;50.748;12.630;2023-02-28T03:09:21;6.97;;;6.57;;
26106;SDS011;13866;50.748;12.630;2023-02-28T03:11:47;5.82;;;5.72;;
26106;SDS011;13866;50.748;12.630;2023-02-28T03:28:22;7.05;;;6.15;;
26106;SDS011;13866;50.748;12.630;2023-02-28T03:30:55;6.90;;;6.57;;
26106;SDS011;13866;50.748;12.630;2023-02-28T03:33:36;6.30;;;6.10;;
26106;SDS011;13866;50.748;12.630;2023-02-28T03:36:08;6.25;;;5.85;;
26106;SDS011;13866;50.748;12.630;2023-02-28T03:38:39;6.65;;;6.45;;
26106;SDS011;13866;50.748;12.630;2023-02-28T03:41:14;5.90;;;5.60;;
26106;SDS011;13866;50.748;12.630;2023-02-28T03:43:45;7.40;;;6.78;;
26106;SDS011;13866;50.748;12.630;2023-02-28T03:46:16;9.93;;;6.30;;
26106;SDS011;13866;50.748;12.630;2023-02-28T03:48:48;6.45;;;6.25;;
26106;SDS011;13866;50.748;12.630;2023-02-28T03:51:20;8.73;;;6.32;;
26106;SDS011;13866;50.748;12.630;2023-02-28T03:53:50;7.30;;;6.80;;
26106;SDS011;13866;50.748;12.630;2023-02-28T03:56:24;7.63;;;7.03;;
26106;SDS011;13866;50.748;12.630;2023-02-28T03:59:04;6.95;;;6.50;;
26106;SDS011;13866;50.748;12.630;2023-02-28T04:01:38;8.82;;;8.00;;
26106;SDS011;13866;50.748;12.630;2023-02-28T04:04:06;7.95;;;7.55;;
26106;SDS011;13866;50.748;12.630;2023-02-28T04:06:36;7.43;;;6.95;;
26106;SDS011;13866;50.748;12.630;2023-02-28T04:09:03;6.37;;;6.10;;
26106;SDS011;13866;50.748;12.630;2023-02-28T04:11:32;7.10;;;6.72;;
26106;SDS011;13866;50.748;12.630;2023-02-28T04:14:02;7.32;;;6.93;;
26106;SDS011;13866;50.748;12.630;2023-02-28T04:16:30;7.60;;;7.20;;
26106;SDS011;13866;50.748;12.630;2023-02-28T04:18:56;8.25;;;7.75;;
26106;SDS011;13866;50.748;12.630;2023-02-28T04:21:29;8.27;;;7.78;;
26106;SDS011;13866;50.748;12.630;2023-02-28T04:23:56;7.57;;;7.28;;
26106;SDS011;13866;50.748;12.630;2023-02-28T04:26:25;8.50;;;8.00;;
26106;SDS011;13866;50.748;12.630;2023-02-28T04:28:57;8.43;;;7.88;;
26106;SDS011;13866;50.748;12.630;2023-02-28T04:31:23;8.80;;;8.30;;
26106;SDS011;13866;50.748;12.630;2023-02-28T04:33:49;8.33;;;7.77;;
26106;SDS011;13866;50.748;12.630;2023-02-28T04:36:14;7.63;;;7.30;;
26106;SDS011;13866;50.748;12.630;2023-02-28T04:38:42;7.85;;;7.40;;
26106;SDS011;13866;50.748;12.630;2023-02-28T04:41:08;7.20;;;6.90;;
26106;SDS011;13866;50.748;12.630;2023-02-28T04:43:34;8.27;;;7.90;;
26106;SDS011;13866;50.748;12.630;2023-02-28T04:46:01;8.90;;;8.20;;
26106;SDS011;13866;50.748;12.630;2023-02-28T04:48:28;8.25;;;7.80;;
26106;SDS011;13866;50.748;12.630;2023-02-28T04:50:55;8.15;;;7.65;;
26106;SDS011;13866;50.748;12.630;2023-02-28T04:53:24;7.70;;;7.40;;
26106;SDS011;13866;50.748;12.630;2023-02-28T04:55:49;9.40;;;8.70;;
26106;SDS011;13866;50.748;12.630;2023-02-28T04:58:15;9.83;;;8.83;;
26106;SDS011;13866;50.748;12.630;2023-02-28T05:00:41;9.03;;;8.63;;
26106;SDS011;13866;50.748;12.630;2023-02-28T05:03:06;9.33;;;8.70;;
26106;SDS011;13866;50.748;12.630;2023-02-28T05:05:32;10.60;;;8.83;;
26106;SDS011;13866;50.748;12.630;2023-02-28T05:07:57;9.67;;;8.93;;
26106;SDS011;13866;50.748;12.630;2023-02-28T05:10:23;9.23;;;8.50;;
26106;SDS011;13866;50.748;12.630;2023-02-28T05:12:48;9.57;;;8.77;;
26106;SDS011;13866;50.748;12.630;2023-02-28T05:15:14;9.60;;;8.80;;
26106;SDS011;13866;50.748;12.630;2023-02-28T05:17:43;8.73;;;8.13;;
26106;SDS011;13866;50.748;12.630;2023-02-28T05:20:09;8.93;;;8.33;;
26106;SDS011;13866;50.748;12.630;2023-02-28T05:22:35;9.35;;;8.77;;
26106;SDS011;13866;50.748;12.630;2023-02-28T05:25:02;9.27;;;8.57;;
26106;SDS011;13866;50.748;12.630;2023-02-28T05:27:29;8.95;;;8.48;;
26106;SDS011;13866;50.748;12.630;2023-02-28T05:29:55;8.57;;;7.97;;
26106;SDS011;13866;50.748;12.630;2023-02-28T05:32:21;9.80;;;9.20;;
26106;SDS011;13866;50.748;12.630;2023-02-28T05:34:47;9.33;;;8.87;;
26106;SDS011;13866;50.748;12.630;2023-02-28T05:37:13;9.90;;;9.20;;
26106;SDS011;13866;50.748;12.630;2023-02-28T05:39:40;9.52;;;9.02;;
26106;SDS011;13866;50.748;12.630;2023-02-28T05:42:06;9.73;;;9.10;;
26106;SDS011;13866;50.748;12.630;2023-02-28T05:44:32;10.53;;;9.50;;
26106;SDS011;13866;50.748;12.630;2023-02-28T05:46:57;9.90;;;9.13;;
26106;SDS011;13866;50.748;12.630;2023-02-28T05:49:23;9.27;;;8.77;;
26106;SDS011;13866;50.748;12.630;2023-02-28T05:51:48;10.80;;;9.70;;
26106;SDS011;13866;50.748;12.630;2023-02-28T05:54:13;11.60;;;10.40;;
26106;SDS011;13866;50.748;12.630;2023-02-28T05:56:39;11.47;;;10.57;;
26106;SDS011;13866;50.748;12.630;2023-02-28T05:59:05;10.80;;;10.10;;
26106;SDS011;13866;50.748;12.630;2023-02-28T06:01:33;10.37;;;9.60;;
26106;SDS011;13866;50.748;12.630;2023-02-28T06:04:04;9.70;;;9.00;;
26106;SDS011;13866;50.748;12.630;2023-02-28T06:06:32;11.38;;;10.45;;
26106;SDS011;13866;50.748;12.630;2023-02-28T06:09:01;11.55;;;10.70;;
26106;SDS011;13866;50.748;12.630;2023-02-28T06:11:28;12.52;;;11.30;;
26106;SDS011;13866;50.748;12.630;2023-02-28T06:13:54;12.43;;;11.23;;
26106;SDS011;13866;50.748;12.630;2023-02-28T06:16:21;12.52;;;11.40;;
26106;SDS011;13866;50.748;12.630;2023-02-28T06:18:47;10.80;;;10.03;;
26106;SDS011;13866;50.748;12.630;2023-02-28T06:21:12;11.53;;;10.63;;
26106;SDS011;13866;50.748;12.630;2023-02-28T06:23:38;10.53;;;9.53;;
26106;SDS011;13866;50.748;12.630;2023-02-28T06:26:04;12.03;;;10.87;;
26106;SDS011;13866;50.748;12.630;2023-02-28T06:28:29;12.57;;;11.43;;
26106;SDS011;13866;50.748;12.630;2023-02-28T06:30:55;13.93;;;10.93;;
26106;SDS011;13866;50.748;12.630;2023-02-28T06:33:20;15.23;;;11.87;;
26106;SDS011;13866;50.748;12.630;2023-02-28T06:35:46;60.40;;;27.80;;
26106;SDS011;13866;50.748;12.630;2023-02-28T06:38:14;43.08;;;25.95;;
26106;SDS011;13866;50.748;12.630;2023-02-28T06:40:40;57.13;;;26.87;;
26106;SDS011;13866;50.748;12.630;2023-02-28T06:43:06;71.93;;;32.60;;
26106;SDS011;13866;50.748;12.630;2023-02-28T06:45:31;24.57;;;18.00;;
26106;SDS011;13866;50.748;12.630;2023-02-28T06:47:57;21.73;;;14.73;;
26106;SDS011;13866;50.748;12.630;2023-02-28T06:50:23;15.50;;;13.93;;
26106;SDS011;13866;50.748;12.630;2023-02-28T06:52:48;17.40;;;15.50;;
26106;SDS011;13866;50.748;12.630;2023-02-28T06:55:18;14.80;;;13.50;;
26106;SDS011;13866;50.748;12.630;2023-02-28T06:57:44;13.90;;;12.60;;
26106;SDS011;13866;50.748;12.630;2023-02-28T07:00:09;15.73;;;11.70;;
26106;SDS011;13866;50.748;12.630;2023-02-28T07:02:36;13.98;;;12.15;;
26106;SDS011;13866;50.748;12.630;2023-02-28T07:05:02;14.10;;;12.70;;
26106;SDS011;13866;50.748;12.630;2023-02-28T07:07:29;14.50;;;13.30;;
26106;SDS011;13866;50.748;12.630;2023-02-28T07:09:54;18.47;;;14.67;;
26106;SDS011;13866;50.748;12.630;2023-02-28T07:12:20;13.97;;;12.40;;
26106;SDS011;13866;50.748;12.630;2023-02-28T07:14:46;13.53;;;12.33;;
26106;SDS011;13866;50.748;12.630;2023-02-28T07:17:11;14.47;;;12.93;;
26106;SDS011;13866;50.748;12.630;2023-02-28T07:19:37;13.97;;;12.70;;
26106;SDS011;13866;50.748;12.630;2023-02-28T07:22:03;17.42;;;12.60;;
26106;SDS011;13866;50.748;12.630;2023-02-28T07:24:29;13.93;;;12.52;;
26106;SDS011;13866;50.748;12.630;2023-02-28T07:26:55;15.43;;;11.30;;
26106;SDS011;13866;50.748;12.630;2023-02-28T07:29:21;12.05;;;10.85;;
26106;SDS011;13866;50.748;12.630;2023-02-28T07:31:46;15.17;;;13.70;;
26106;SDS011;13866;50.748;12.630;2023-02-28T07:34:13;12.50;;;11.40;;
26106;SDS011;13866;50.748;12.630;2023-02-28T07:36:38;12.45;;;11.52;;
26106;SDS011;13866;50.748;12.630;2023-02-28T07:39:04;13.47;;;12.37;;
26106;SDS011;13866;50.748;12.630;2023-02-28T07:41:30;10.47;;;9.77;;
26106;SDS011;13866;50.748;12.630;2023-02-28T07:43:58;10.98;;;10.15;;
26106;SDS011;13866;50.748;12.630;2023-02-28T07:46:24;12.10;;;10.95;;
26106;SDS011;13866;50.748;12.630;2023-02-28T07:48:50;13.60;;;12.43;;
26106;SDS011;13866;50.748;12.630;2023-02-28T07:51:16;12.37;;;11.30;;
26106;SDS011;13866;50.748;12.630;2023-02-28T07:53:42;12.10;;;9.90;;
26106;SDS011;13866;50.748;12.630;2023-02-28T07:56:07;12.03;;;10.90;;
26106;SDS011;13866;50.748;12.630;2023-02-28T07:58:33;12.13;;;10.87;;
26106;SDS011;13866;50.748;12.630;2023-02-28T08:01:09;13.60;;;12.30;;
26106;SDS011;13866;50.748;12.630;2023-02-28T08:03:35;20.45;;;14.93;;
26106;SDS011;13866;50.748;12.630;2023-02-28T08:06:03;13.90;;;12.90;;
26106;SDS011;13866;50.748;12.630;2023-02-28T08:08:29;12.10;;;11.05;;
26106;SDS011;13866;50.748;12.630;2023-02-28T08:10:57;11.38;;;10.40;;
26106;SDS011;13866;50.748;12.630;2023-02-28T08:13:25;14.07;;;12.02;;
26106;SDS011;13866;50.748;12.630;2023-02-28T08:15:52;12.45;;;11.50;;
26106;SDS011;13866;50.748;12.630;2023-02-28T08:18:18;13.95;;;11.30;;
26106;SDS011;13866;50.748;12.630;2023-02-28T08:20:44;12.33;;;11.13;;
26106;SDS011;13866;50.748;12.630;2023-02-28T08:23:09;11.77;;;10.83;;
26106;SDS011;13866;50.748;12.630;2023-02-28T08:25:34;11.03;;;10.23;;
26106;SDS011;13866;50.748;12.630;2023-02-28T08:28:00;10.50;;;9.60;;
26106;SDS011;13866;50.748;12.630;2023-02-28T08:30:25;10.67;;;9.60;;
26106;SDS011;13866;50.748;12.630;2023-02-28T08:32:51;10.43;;;9.67;;
26106;SDS011;13866;50.748;12.630;2023-02-28T08:35:16;9.70;;;9.07;;
26106;SDS011;13866;50.748;12.630;2023-02-28T08:37:42;8.30;;;7.73;;
26106;SDS011;13866;50.748;12.630;2023-02-28T08:40:08;10.03;;;9.20;;
26106;SDS011;13866;50.748;12.630;2023-02-28T08:42:34;8.98;;;8.35;;
26106;SDS011;13866;50.748;12.630;2023-02-28T08:44:59;9.27;;;8.37;;
26106;SDS011;13866;50.748;12.630;2023-02-28T08:47:25;9.27;;;8.40;;
26106;SDS011;13866;50.748;12.630;2023-02-28T08:49:50;9.00;;;8.20;;
26106;SDS011;13866;50.748;12.630;2023-02-28T08:52:16;8.47;;;7.87;;
26106;SDS011;13866;50.748;12.630;2023-02-28T08:54:41;9.00;;;8.57;;
26106;SDS011;13866;50.748;12.630;2023-02-28T08:57:07;7.30;;;6.80;;
26106;SDS011;13866;50.748;12.630;2023-02-28T08:59:32;8.57;;;7.87;;
26106;SDS011;13866;50.748;12.630;2023-02-28T09:01:58;8.13;;;7.43;;
26106;SDS011;13866;50.748;12.630;2023-02-28T09:04:23;7.27;;;6.77;;
26106;SDS011;13866;50.748;12.630;2023-02-28T09:06:49;8.10;;;7.30;;
26106;SDS011;13866;50.748;12.630;2023-02-28T09:09:15;8.30;;;7.50;;
26106;SDS011;13866;50.748;12.630;2023-02-28T09:11:41;7.05;;;6.75;;
26106;SDS011;13866;50.748;12.630;2023-02-28T09:14:06;7.50;;;7.10;;
26106;SDS011;13866;50.748;12.630;2023-02-28T09:16:32;8.03;;;7.63;;
26106;SDS011;13866;50.748;12.630;2023-02-28T09:18:58;6.68;;;6.18;;
26106;SDS011;13866;50.748;12.630;2023-02-28T09:21:24;7.27;;;6.93;;
26106;SDS011;13866;50.748;12.630;2023-02-28T09:23:50;7.50;;;7.00;;
26106;SDS011;13866;50.748;12.630;2023-02-28T09:26:26;7.70;;;7.30;;
26106;SDS011;13866;50.748;12.630;2023-02-28T09:28:52;7.87;;;7.30;;
26106;SDS011;13866;50.748;12.630;2023-02-28T09:31:19;8.32;;;7.63;;
26106;SDS011;13866;50.748;12.630;2023-02-28T09:33:50;7.80;;;7.18;;
26106;SDS011;13866;50.748;12.630;2023-02-28T09:36:18;8.33;;;7.63;;
26106;SDS011;13866;50.748;12.630;2023-02-28T09:38:44;8.43;;;7.83;;
26106;SDS011;13866;50.748;12.630;2023-02-28T09:41:13;6.90;;;6.70;;
26106;SDS011;13866;50.748;12.630;2023-02-28T09:43:43;7.82;;;7.28;;
26106;SDS011;13866;50.748;12.630;2023-02-28T09:46:19;7.23;;;6.83;;
26106;SDS011;13866;50.748;12.630;2023-02-28T09:48:52;7.57;;;7.00;;
26106;SDS011;13866;50.748;12.630;2023-02-28T09:51:32;6.80;;;6.40;;
26106;SDS011;13866;50.748;12.630;2023-02-28T09:54:15;17.50;;;7.50;;
26106;SDS011;13866;50.748;12.630;2023-02-28T09:56:44;7.03;;;6.53;;
26106;SDS011;13866;50.748;12.630;2023-02-28T09:59:31;7.60;;;7.10;;
26106;SDS011;13866;50.748;12.630;2023-02-28T10:05:11;7.63;;;7.03;;
26106;SDS011;13866;50.748;12.630;2023-02-28T10:10:28;8.77;;;8.07;;
26106;SDS011;13866;50.748;12.630;2023-02-28T10:12:55;7.10;;;6.90;;
26106;SDS011;13866;50.748;12.630;2023-02-28T10:15:24;8.80;;;8.23;;
26106;SDS011;13866;50.748;12.630;2023-02-28T10:17:54;8.70;;;7.77;;
26106;SDS011;13866;50.748;12.630;2023-02-28T10:20:23;7.50;;;7.10;;
26106;SDS011;13866;50.748;12.630;2023-02-28T10:23:28;7.57;;;6.97;;
26106;SDS011;13866;50.748;12.630;2023-02-28T10:25:57;8.20;;;7.80;;
26106;SDS011;13866;50.748;12.630;2023-02-28T10:28:26;9.50;;;8.23;;
26106;SDS011;13866;50.748;12.630;2023-02-28T10:30:54;8.20;;;7.53;;
26106;SDS011;13866;50.748;12.630;2023-02-28T10:33:24;8.00;;;7.50;;
26106;SDS011;13866;50.748;12.630;2023-02-28T10:35:52;7.10;;;6.57;;
26106;SDS011;13866;50.748;12.630;2023-02-28T10:38:22;8.20;;;7.70;;
26106;SDS011;13866;50.748;12.630;2023-02-28T10:40:51;7.23;;;6.70;;
26106;SDS011;13866;50.748;12.630;2023-02-28T10:43:27;6.90;;;6.50;;
26106;SDS011;13866;50.748;12.630;2023-02-28T10:48:41;7.30;;;6.80;;
26106;SDS011;13866;50.748;12.630;2023-02-28T10:51:22;7.00;;;6.60;;
26106;SDS011;13866;50.748;12.630;2023-02-28T10:53:51;7.43;;;6.87;;
26106;SDS011;13866;50.748;12.630;2023-02-28T10:56:19;7.57;;;7.17;;
26106;SDS011;13866;50.748;12.630;2023-02-28T11:04:01;7.87;;;7.17;;
26106;SDS011;13866;50.748;12.630;2023-02-28T11:06:31;6.93;;;6.73;;
26106;SDS011;13866;50.748;12.630;2023-02-28T11:08:59;8.10;;;7.40;;
26106;SDS011;13866;50.748;12.630;2023-02-28T11:11:29;6.63;;;6.30;;
26106;SDS011;13866;50.748;12.630;2023-02-28T11:14:06;9.43;;;8.53;;
26106;SDS011;13866;50.748;12.630;2023-02-28T11:16:42;7.67;;;7.27;;
26106;SDS011;13866;50.748;12.630;2023-02-28T11:19:44;7.90;;;7.20;;
26106;SDS011;13866;50.748;12.630;2023-02-28T11:22:15;7.57;;;7.13;;
26106;SDS011;13866;50.748;12.630;2023-02-28T11:24:45;8.67;;;7.83;;
26106;SDS011;13866;50.748;12.630;2023-02-28T11:27:25;7.20;;;6.80;;
26106;SDS011;13866;50.748;12.630;2023-02-28T11:29:56;7.13;;;6.83;;
26106;SDS011;13866;50.748;12.630;2023-02-28T11:32:23;8.73;;;8.03;;
26106;SDS011;13866;50.748;12.630;2023-02-28T11:37:41;8.30;;;7.50;;
26106;SDS011;13866;50.748;12.630;2023-02-28T11:40:14;7.97;;;7.47;;
26106;SDS011;13866;50.748;12.630;2023-02-28T12:16:09;9.47;;;8.77;;
26106;SDS011;13866;50.748;12.630;2023-02-28T12:22:38;8.70;;;8.27;;
26106;SDS011;13866;50.748;12.630;2023-02-28T12:25:38;11.17;;;8.67;;
26106;SDS011;13866;50.748;12.630;2023-02-28T12:28:13;8.23;;;7.63;;
26106;SDS011;13866;50.748;12.630;2023-02-28T12:30:45;10.57;;;9.50;;
26106;SDS011;13866;50.748;12.630;2023-02-28T12:33:33;9.90;;;9.00;;
26106;SDS011;13866;50.748;12.630;2023-02-28T12:36:03;8.20;;;7.60;;
26106;SDS011;13866;50.748;12.630;2023-02-28T12:38:36;9.90;;;9.00;;
26106;SDS011;13866;50.748;12.630;2023-02-28T12:41:13;8.97;;;8.27;;
26106;SDS011;13866;50.748;12.630;2023-02-28T12:43:42;8.63;;;8.13;;
26106;SDS011;13866;50.748;12.630;2023-02-28T12:46:19;8.43;;;7.93;;
26106;SDS011;13866;50.748;12.630;2023-02-28T12:48:54;8.10;;;7.60;;
26106;SDS011;13866;50.748;12.630;2023-02-28T12:51:21;8.90;;;8.10;;
26106;SDS011;13866;50.748;12.630;2023-02-28T12:53:52;8.43;;;7.67;;
26106;SDS011;13866;50.748;12.630;2023-02-28T12:56:34;9.00;;;8.17;;
26106;SDS011;13866;50.748;12.630;2023-02-28T13:07:23;8.93;;;8.23;;
26106;SDS011;13866;50.748;12.630;2023-02-28T13:10:02;8.70;;;8.10;;
26106;SDS011;13866;50.748;12.630;2023-02-28T13:12:31;10.43;;;9.60;;
26106;SDS011;13866;50.748;12.630;2023-02-28T13:15:02;10.00;;;9.20;;
26106;SDS011;13866;50.748;12.630;2023-02-28T13:17:37;9.03;;;8.37;;
26106;SDS011;13866;50.748;12.630;2023-02-28T13:20:04;11.03;;;8.90;;
26106;SDS011;13866;50.748;12.630;2023-02-28T13:22:48;9.73;;;8.70;;
26106;SDS011;13866;50.748;12.630;2023-02-28T13:27:47;9.10;;;8.50;;
26106;SDS011;13866;50.748;12.630;2023-02-28T13:33:26;11.57;;;9.40;;
26106;SDS011;13866;50.748;12.630;2023-02-28T13:36:41;9.17;;;8.37;;
26106;SDS011;13866;50.748;12.630;2023-02-28T13:38:51;8.43;;;7.83;;
26106;SDS011;13866;50.748;12.630;2023-02-28T13:46:36;8.97;;;8.47;;
26106;SDS011;13866;50.748;12.630;2023-02-28T13:49:34;16.83;;;8.33;;
26106;SDS011;13866;50.748;12.630;2023-02-28T13:52:25;10.70;;;10.00;;
26106;SDS011;13866;50.748;12.630;2023-02-28T13:55:24;8.30;;;7.70;;
26106;SDS011;13866;50.748;12.630;2023-02-28T14:06:37;9.70;;;9.03;;
26106;SDS011;13866;50.748;12.630;2023-02-28T14:11:46;8.30;;;7.83;;
26106;SDS011;13866;50.748;12.630;2023-02-28T14:16:59;8.77;;;8.17;;
26106;SDS011;13866;50.748;12.630;2023-02-28T14:19:26;9.53;;;8.63;;
26106;SDS011;13866;50.748;12.630;2023-02-28T14:30:15;8.43;;;7.80;;
26106;SDS011;13866;50.748;12.630;2023-02-28T14:38:42;9.00;;;8.50;;
26106;SDS011;13866;50.748;12.630;2023-02-28T14:41:29;9.33;;;8.73;;
26106;SDS011;13866;50.748;12.630;2023-02-28T14:43:58;8.33;;;8.03;;
26106;SDS011;13866;50.748;12.630;2023-02-28T14:46:35;8.63;;;8.13;;
26106;SDS011;13866;50.748;12.630;2023-02-28T14:49:03;9.77;;;8.83;;
26106;SDS011;13866;50.748;12.630;2023-02-28T14:51:32;8.63;;;8.13;;
26106;SDS011;13866;50.748;12.630;2023-02-28T14:53:59;8.50;;;8.10;;
26106;SDS011;13866;50.748;12.630;2023-02-28T14:56:29;9.57;;;8.90;;
26106;SDS011;13866;50.748;12.630;2023-02-28T14:58:59;9.63;;;8.70;;
26106;SDS011;13866;50.748;12.630;2023-02-28T15:01:24;10.20;;;9.50;;
26106;SDS011;13866;50.748;12.630;2023-02-28T15:04:04;10.10;;;9.43;;
26106;SDS011;13866;50.748;12.630;2023-02-28T15:06:31;10.70;;;9.63;;
26106;SDS011;13866;50.748;12.630;2023-02-28T15:09:07;10.97;;;9.97;;
26106;SDS011;13866;50.748;12.630;2023-02-28T15:11:33;11.67;;;10.57;;
26106;SDS011;13866;50.748;12.630;2023-02-28T15:14:00;12.40;;;11.20;;
26106;SDS011;13866;50.748;12.630;2023-02-28T15:16:30;12.27;;;11.20;;
26106;SDS011;13866;50.748;12.630;2023-02-28T15:19:14;10.20;;;9.40;;
26106;SDS011;13866;50.748;12.630;2023-02-28T15:22:04;10.70;;;9.80;;
26106;SDS011;13866;50.748;12.630;2023-02-28T15:24:37;10.80;;;9.93;;
26106;SDS011;13866;50.748;12.630;2023-02-28T15:27:15;11.10;;;10.10;;
26106;SDS011;13866;50.748;12.630;2023-02-28T15:29:47;10.67;;;9.77;;
26106;SDS011;13866;50.748;12.630;2023-02-28T15:35:28;12.23;;;10.80;;
26106;SDS011;13866;50.748;12.630;2023-02-28T15:38:13;10.30;;;9.70;;
26106;SDS011;13866;50.748;12.630;2023-02-28T15:40:50;10.83;;;9.80;;
26106;SDS011;13866;50.748;12.630;2023-02-28T15:46:00;11.53;;;10.73;;
26106;SDS011;13866;50.748;12.630;2023-02-28T15:48:45;10.70;;;9.80;;
26106;SDS011;13866;50.748;12.630;2023-02-28T15:51:29;12.57;;;9.57;;
26106;SDS011;13866;50.748;12.630;2023-02-28T15:54:04;11.53;;;10.53;;
26106;SDS011;13866;50.748;12.630;2023-02-28T15:56:44;10.77;;;9.90;;
26106;SDS011;13866;50.748;12.630;2023-02-28T15:59:16;10.73;;;9.90;;
26106;SDS011;13866;50.748;12.630;2023-02-28T16:01:45;11.93;;;10.77;;
26106;SDS011;13866;50.748;12.630;2023-02-28T16:04:18;11.80;;;10.70;;
26106;SDS011;13866;50.748;12.630;2023-02-28T16:06:45;11.07;;;10.17;;
26106;SDS011;13866;50.748;12.630;2023-02-28T16:09:14;12.50;;;10.80;;
26106;SDS011;13866;50.748;12.630;2023-02-28T16:11:42;11.47;;;9.57;;
26106;SDS011;13866;50.748;12.630;2023-02-28T16:14:17;11.60;;;10.50;;
26106;SDS011;13866;50.748;12.630;2023-02-28T16:16:49;10.97;;;9.97;;
26106;SDS011;13866;50.748;12.630;2023-02-28T16:19:16;11.27;;;10.17;;
26106;SDS011;13866;50.748;12.630;2023-02-28T16:21:42;12.00;;;11.03;;
26106;SDS011;13866;50.748;12.630;2023-02-28T16:24:08;11.53;;;10.47;;
26106;SDS011;13866;50.748;12.630;2023-02-28T16:26:34;11.83;;;10.80;;
26106;SDS011;13866;50.748;12.630;2023-02-28T16:29:02;12.10;;;11.10;;
26106;SDS011;13866;50.748;12.630;2023-02-28T16:31:28;11.43;;;10.43;;
26106;SDS011;13866;50.748;12.630;2023-02-28T16:33:54;11.20;;;10.20;;
26106;SDS011;13866;50.748;12.630;2023-02-28T16:36:20;13.47;;;12.27;;
26106;SDS011;13866;50.748;12.630;2023-02-28T16:38:49;14.23;;;12.90;;
26106;SDS011;13866;50.748;12.630;2023-02-28T16:41:17;14.23;;;12.83;;
26106;SDS011;13866;50.748;12.630;2023-02-28T16:43:46;13.30;;;12.20;;
26106;SDS011;13866;50.748;12.630;2023-02-28T16:46:13;13.40;;;12.30;;
26106;SDS011;13866;50.748;12.630;2023-02-28T16:48:39;12.63;;;11.63;;
26106;SDS011;13866;50.748;12.630;2023-02-28T16:51:17;13.83;;;11.83;;
26106;SDS011;13866;50.748;12.630;2023-02-28T16:53:43;13.67;;;12.27;;
26106;SDS011;13866;50.748;12.630;2023-02-28T16:56:15;14.47;;;13.03;;